Airfield :
LOGIN :

Register | Disclaimer

   EN    FR    IT 

 










Legend :    VFR   Marginal VFR   IFR   Intensive IFR   Very Intensive IFR
Visi :
Ceiling :
>= 8 km
>= 3000ft
5 to 8 km
1000 to 3000 ft
1500m to 5 km
500 to 1000 ft
800 to 1500m
200 to 500 ft
< 800m
< 200 ft
Symbols :   Thunderstorms  Fog  Heavy snow  Heavy precipitations  Wind > 20 kt
SIGMETs :     Misc.  Thunderstorms  Icing  Turbulence  Mountain Waves  Volcanic Ashes






- Airport Elevation : 72 ft
- IATA code : UDE


EHVK - Volkel Airbase

CURRENT METAR :
  • 281726Z AUTO 21013KT 170V250 9999 FEW015CB SCT023 BKN027 OVC032 11/09 Q1006 WHT

EXPIRED METARs :
  • 281725Z AUTO 20012KT 150V240 9999 -RA FEW015CB SCT027 BKN032 OVC038 11/09 Q1006 BLU
  • 281655Z AUTO 20014KT 160V250 9999 -RA FEW015CB BKN057 BKN063 11/09 Q1006 RERA REDZ BLU
  • 281642Z AUTO 21015G26KT 160V270 9000 -RA FEW015CB BKN048 OVC052 11/08 Q1006 BLU
  • 281638Z AUTO 20012G26KT 170V270 6000 -SHRA FEW015CB SCT040 BKN049 12/08 Q1006 WHT
  • 281625Z AUTO 20008KT 170V230 9999 FEW032 SCT040 BKN047 11/08 Q1006 BLU
  • 281555Z AUTO 22014KT 190V250 9999 FEW040 SCT059 OVC065 11/08 Q1006 REDZ BLU
  • 281525Z AUTO 22014KT 190V260 9999 -RADZ FEW020CB BKN029 OVC033 13/08 Q1006 BLU
  • 281455Z AUTO 20016KT 160V250 9999 FEW022CB SCT029 BKN033 OVC038 13/07 Q1006 BLU
  • 281446Z AUTO 20016KT 160V250 9999 SCT024CB SCT031 OVC036 13/07 Q1006 WHT
  • 281439Z AUTO 21016KT 160V240 9999 SCT024CB BKN032 OVC036 13/07 Q1006 WHT TEMPO 4500 -SHRA FEW010 SCT018CB BKN020

TAF TAF EHVK
Valid from the 28 at 18:00 until the 29 at 06:00 UTC


281728Z 2818/2906 20014KT 9999 SCT020 BKN040
TEMPO 2818/2902 21016G28KT 4000 SHRA FEW013 SCT018CB BKN030
PROB30
TEMPO 2818/2902 22018G30KT 2000 TSRAGS SCT010 SCT017CB
BECMG 2900/2903 24012KT
PROB30
TEMPO 2902/2906 SCT018CB



MET'MAP, your aeronautical weather chart ! - Copyright ORBIFLY December 2007 - Disclaimer

ORBIFLY MET'MAP TEAM :

Programming & Development : Alexandra Zaïnal
Concept & original design : Baudouin d'Aumeries
Assistance for programming : Marc-Olivier Méhu
Technical & hardware support : Manuel Goepfert

Contact : metmap@orbifly.com




SOURCES & CREDITS :

   NOAA